<?xml version="1.0" encoding="utf-8"?>
<gpx xmlns:xsi="http://www.w3.org/2001/XMLSchema-instance" xmlns:xsd="http://www.w3.org/2001/XMLSchema" version="1.1" creator="Shapelink.com" xmlns="http://www.topografix.com/GPX/1/1" xmlns:gpxtpx="http://www.garmin.com/xmlschemas/TrackPointExtension/v1">
  <metadata>
    <name>Gåing 2.10 km, 2012-08-19</name>
    <desc></desc>
    <author><name>Mikael Blom</name></author> 
    <time>2012-08-19T07:37:22Z</time>
  </metadata>
  <trk>
    <name>Gåing 2.10 km, 2012-08-19</name>
    <trkseg>
      <trkpt lat="59.9782918" lon="17.7393103">
        <ele>31.3801</ele>
        <time>2012-08-19T07:37:22Z</time>
      </trkpt>
      <trkpt lat="59.9781922" lon="17.7392894">
        <ele>30.4188</ele>
        <time>2012-08-19T07:37:27Z</time>
      </trkpt>
      <trkpt lat="59.9781703" lon="17.7392548">
        <ele>37.1481</ele>
        <time>2012-08-19T07:37:31Z</time>
      </trkpt>
      <trkpt lat="59.9781382" lon="17.7392553">
        <ele>40.0321</ele>
        <time>2012-08-19T07:37:35Z</time>
      </trkpt>
      <trkpt lat="59.9780383" lon="17.7391992">
        <ele>39.0707</ele>
        <time>2012-08-19T07:37:41Z</time>
      </trkpt>
      <trkpt lat="59.9779555" lon="17.7391431">
        <ele>40.9934</ele>
        <time>2012-08-19T07:37:47Z</time>
      </trkpt>
      <trkpt lat="59.977871" lon="17.7390917">
        <ele>38.5901</ele>
        <time>2012-08-19T07:37:53Z</time>
      </trkpt>
      <trkpt lat="59.9778388" lon="17.7390516">
        <ele>39.0707</ele>
        <time>2012-08-19T07:37:55Z</time>
      </trkpt>
      <trkpt lat="59.9777797" lon="17.7390143">
        <ele>39.5513</ele>
        <time>2012-08-19T07:37:59Z</time>
      </trkpt>
      <trkpt lat="59.9777322" lon="17.739001">
        <ele>40.0321</ele>
        <time>2012-08-19T07:38:02Z</time>
      </trkpt>
      <trkpt lat="59.9777022" lon="17.7389959">
        <ele>40.0321</ele>
        <time>2012-08-19T07:38:04Z</time>
      </trkpt>
      <trkpt lat="59.9776327" lon="17.738986">
        <ele>39.5513</ele>
        <time>2012-08-19T07:38:09Z</time>
      </trkpt>
      <trkpt lat="59.97751" lon="17.7389754">
        <ele>40.0321</ele>
        <time>2012-08-19T07:38:17Z</time>
      </trkpt>
      <trkpt lat="59.9774489" lon="17.7389933">
        <ele>38.1094</ele>
        <time>2012-08-19T07:38:21Z</time>
      </trkpt>
      <trkpt lat="59.977406" lon="17.7390426">
        <ele>36.6675</ele>
        <time>2012-08-19T07:38:25Z</time>
      </trkpt>
      <trkpt lat="59.9773157" lon="17.7391555">
        <ele>34.7449</ele>
        <time>2012-08-19T07:38:32Z</time>
      </trkpt>
      <trkpt lat="59.9772343" lon="17.7392008">
        <ele>34.7449</ele>
        <time>2012-08-19T07:38:38Z</time>
      </trkpt>
      <trkpt lat="59.9771966" lon="17.7392168">
        <ele>34.7449</ele>
        <time>2012-08-19T07:38:41Z</time>
      </trkpt>
      <trkpt lat="59.9771003" lon="17.7392482">
        <ele>36.1868</ele>
        <time>2012-08-19T07:38:47Z</time>
      </trkpt>
      <trkpt lat="59.9770339" lon="17.7393128">
        <ele>37.1481</ele>
        <time>2012-08-19T07:38:53Z</time>
      </trkpt>
      <trkpt lat="59.976941" lon="17.7393555">
        <ele>36.6675</ele>
        <time>2012-08-19T07:38:59Z</time>
      </trkpt>
      <trkpt lat="59.9769037" lon="17.7393947">
        <ele>36.6675</ele>
        <time>2012-08-19T07:39:02Z</time>
      </trkpt>
      <trkpt lat="59.9768127" lon="17.7394145">
        <ele>35.7061</ele>
        <time>2012-08-19T07:39:08Z</time>
      </trkpt>
      <trkpt lat="59.9767988" lon="17.7394211">
        <ele>35.7061</ele>
        <time>2012-08-19T07:39:09Z</time>
      </trkpt>
      <trkpt lat="59.9767288" lon="17.7394445">
        <ele>34.7449</ele>
        <time>2012-08-19T07:39:13Z</time>
      </trkpt>
      <trkpt lat="59.9766769" lon="17.7394833">
        <ele>34.7449</ele>
        <time>2012-08-19T07:39:17Z</time>
      </trkpt>
      <trkpt lat="59.9765574" lon="17.7395879">
        <ele>35.2255</ele>
        <time>2012-08-19T07:39:26Z</time>
      </trkpt>
      <trkpt lat="59.9765091" lon="17.739646">
        <ele>34.2642</ele>
        <time>2012-08-19T07:39:30Z</time>
      </trkpt>
      <trkpt lat="59.9764231" lon="17.7397324">
        <ele>35.7061</ele>
        <time>2012-08-19T07:39:36Z</time>
      </trkpt>
      <trkpt lat="59.9763367" lon="17.7397765">
        <ele>35.7061</ele>
        <time>2012-08-19T07:39:42Z</time>
      </trkpt>
      <trkpt lat="59.9763218" lon="17.7397759">
        <ele>35.7061</ele>
        <time>2012-08-19T07:39:43Z</time>
      </trkpt>
      <trkpt lat="59.9762031" lon="17.7397433">
        <ele>34.2642</ele>
        <time>2012-08-19T07:39:51Z</time>
      </trkpt>
      <trkpt lat="59.9760935" lon="17.7396434">
        <ele>32.3416</ele>
        <time>2012-08-19T07:39:58Z</time>
      </trkpt>
      <trkpt lat="59.9760285" lon="17.7395454">
        <ele>30.8995</ele>
        <time>2012-08-19T07:40:03Z</time>
      </trkpt>
      <trkpt lat="59.9759917" lon="17.7394756">
        <ele>30.4188</ele>
        <time>2012-08-19T07:40:06Z</time>
      </trkpt>
      <trkpt lat="59.9758802" lon="17.7393315">
        <ele>30.4188</ele>
        <time>2012-08-19T07:40:15Z</time>
      </trkpt>
      <trkpt lat="59.9758332" lon="17.7392388">
        <ele>30.4188</ele>
        <time>2012-08-19T07:40:19Z</time>
      </trkpt>
      <trkpt lat="59.975773" lon="17.7391304">
        <ele>29.9381</ele>
        <time>2012-08-19T07:40:25Z</time>
      </trkpt>
      <trkpt lat="59.9756802" lon="17.7389737">
        <ele>30.4188</ele>
        <time>2012-08-19T07:40:33Z</time>
      </trkpt>
      <trkpt lat="59.9756302" lon="17.7389019">
        <ele>29.4575</ele>
        <time>2012-08-19T07:40:37Z</time>
      </trkpt>
      <trkpt lat="59.9755548" lon="17.7387978">
        <ele>28.4962</ele>
        <time>2012-08-19T07:40:43Z</time>
      </trkpt>
      <trkpt lat="59.9754819" lon="17.7386684">
        <ele>28.0155</ele>
        <time>2012-08-19T07:40:49Z</time>
      </trkpt>
      <trkpt lat="59.9753841" lon="17.7384617">
        <ele>28.0155</ele>
        <time>2012-08-19T07:40:57Z</time>
      </trkpt>
      <trkpt lat="59.9753235" lon="17.7383679">
        <ele>27.5349</ele>
        <time>2012-08-19T07:41:02Z</time>
      </trkpt>
      <trkpt lat="59.9752821" lon="17.738258">
        <ele>27.5349</ele>
        <time>2012-08-19T07:41:06Z</time>
      </trkpt>
      <trkpt lat="59.9752114" lon="17.7381328">
        <ele>27.5349</ele>
        <time>2012-08-19T07:41:12Z</time>
      </trkpt>
      <trkpt lat="59.9751813" lon="17.7380976">
        <ele>27.0543</ele>
        <time>2012-08-19T07:41:14Z</time>
      </trkpt>
      <trkpt lat="59.9750786" lon="17.7379144">
        <ele>27.0543</ele>
        <time>2012-08-19T07:41:23Z</time>
      </trkpt>
      <trkpt lat="59.9749909" lon="17.7377527">
        <ele>27.0543</ele>
        <time>2012-08-19T07:41:31Z</time>
      </trkpt>
      <trkpt lat="59.9749343" lon="17.737611">
        <ele>26.5736</ele>
        <time>2012-08-19T07:41:37Z</time>
      </trkpt>
      <trkpt lat="59.9749122" lon="17.7375754">
        <ele>26.5736</ele>
        <time>2012-08-19T07:41:39Z</time>
      </trkpt>
      <trkpt lat="59.9748267" lon="17.7373988">
        <ele>26.5736</ele>
        <time>2012-08-19T07:41:47Z</time>
      </trkpt>
      <trkpt lat="59.9747703" lon="17.7372853">
        <ele>26.5736</ele>
        <time>2012-08-19T07:41:52Z</time>
      </trkpt>
      <trkpt lat="59.9746809" lon="17.7370746">
        <ele>25.6123</ele>
        <time>2012-08-19T07:42:01Z</time>
      </trkpt>
      <trkpt lat="59.9746097" lon="17.7369132">
        <ele>23.6896</ele>
        <time>2012-08-19T07:42:08Z</time>
      </trkpt>
      <trkpt lat="59.9745543" lon="17.7367331">
        <ele>22.2476</ele>
        <time>2012-08-19T07:42:15Z</time>
      </trkpt>
      <trkpt lat="59.9745423" lon="17.7366783">
        <ele>22.2476</ele>
        <time>2012-08-19T07:42:17Z</time>
      </trkpt>
      <trkpt lat="59.9744864" lon="17.7365312">
        <ele>18.8831</ele>
        <time>2012-08-19T07:42:23Z</time>
      </trkpt>
      <trkpt lat="59.9744419" lon="17.7363747">
        <ele>17.9218</ele>
        <time>2012-08-19T07:42:29Z</time>
      </trkpt>
      <trkpt lat="59.9744214" lon="17.7362509">
        <ele>18.8831</ele>
        <time>2012-08-19T07:42:33Z</time>
      </trkpt>
      <trkpt lat="59.9743802" lon="17.7360787">
        <ele>17.4412</ele>
        <time>2012-08-19T07:42:39Z</time>
      </trkpt>
      <trkpt lat="59.9743562" lon="17.7359689">
        <ele>16.4797</ele>
        <time>2012-08-19T07:42:43Z</time>
      </trkpt>
      <trkpt lat="59.9743448" lon="17.7358869">
        <ele>16.9604</ele>
        <time>2012-08-19T07:42:46Z</time>
      </trkpt>
      <trkpt lat="59.9743346" lon="17.7357776">
        <ele>17.9218</ele>
        <time>2012-08-19T07:42:50Z</time>
      </trkpt>
      <trkpt lat="59.9743206" lon="17.735718">
        <ele>17.9218</ele>
        <time>2012-08-19T07:42:52Z</time>
      </trkpt>
      <trkpt lat="59.9743102" lon="17.7355911">
        <ele>19.3638</ele>
        <time>2012-08-19T07:42:56Z</time>
      </trkpt>
      <trkpt lat="59.9742749" lon="17.7353792">
        <ele>20.8057</ele>
        <time>2012-08-19T07:43:02Z</time>
      </trkpt>
      <trkpt lat="59.9742501" lon="17.735232">
        <ele>19.3638</ele>
        <time>2012-08-19T07:43:07Z</time>
      </trkpt>
      <trkpt lat="59.9742355" lon="17.7349923">
        <ele>19.3638</ele>
        <time>2012-08-19T07:43:15Z</time>
      </trkpt>
      <trkpt lat="59.9742201" lon="17.7347963">
        <ele>19.8444</ele>
        <time>2012-08-19T07:43:21Z</time>
      </trkpt>
      <trkpt lat="59.9742098" lon="17.7344629">
        <ele>22.7283</ele>
        <time>2012-08-19T07:43:32Z</time>
      </trkpt>
      <trkpt lat="59.9742161" lon="17.7341881">
        <ele>24.651</ele>
        <time>2012-08-19T07:43:41Z</time>
      </trkpt>
      <trkpt lat="59.9742243" lon="17.7339804">
        <ele>25.6123</ele>
        <time>2012-08-19T07:43:48Z</time>
      </trkpt>
      <trkpt lat="59.9742378" lon="17.733795">
        <ele>26.5736</ele>
        <time>2012-08-19T07:43:54Z</time>
      </trkpt>
      <trkpt lat="59.9742532" lon="17.7335301">
        <ele>27.5349</ele>
        <time>2012-08-19T07:44:03Z</time>
      </trkpt>
      <trkpt lat="59.9742735" lon="17.7332712">
        <ele>28.4962</ele>
        <time>2012-08-19T07:44:12Z</time>
      </trkpt>
      <trkpt lat="59.9742906" lon="17.7329174">
        <ele>28.4962</ele>
        <time>2012-08-19T07:44:24Z</time>
      </trkpt>
      <trkpt lat="59.9742961" lon="17.7326689">
        <ele>28.4962</ele>
        <time>2012-08-19T07:44:32Z</time>
      </trkpt>
      <trkpt lat="59.9742945" lon="17.7324663">
        <ele>28.4962</ele>
        <time>2012-08-19T07:44:38Z</time>
      </trkpt>
      <trkpt lat="59.9742865" lon="17.7322043">
        <ele>28.0155</ele>
        <time>2012-08-19T07:44:46Z</time>
      </trkpt>
      <trkpt lat="59.9742812" lon="17.7320481">
        <ele>28.4962</ele>
        <time>2012-08-19T07:44:51Z</time>
      </trkpt>
      <trkpt lat="59.974273" lon="17.7318043">
        <ele>29.4575</ele>
        <time>2012-08-19T07:44:59Z</time>
      </trkpt>
      <trkpt lat="59.9742792" lon="17.7315012">
        <ele>30.4188</ele>
        <time>2012-08-19T07:45:09Z</time>
      </trkpt>
      <trkpt lat="59.9742906" lon="17.7311763">
        <ele>30.8995</ele>
        <time>2012-08-19T07:45:20Z</time>
      </trkpt>
      <trkpt lat="59.9742997" lon="17.73103">
        <ele>31.3801</ele>
        <time>2012-08-19T07:45:25Z</time>
      </trkpt>
      <trkpt lat="59.974304" lon="17.7309055">
        <ele>31.8607</ele>
        <time>2012-08-19T07:45:29Z</time>
      </trkpt>
      <trkpt lat="59.97432" lon="17.7307486">
        <ele>33.3029</ele>
        <time>2012-08-19T07:45:34Z</time>
      </trkpt>
      <trkpt lat="59.9743292" lon="17.7304882">
        <ele>34.2642</ele>
        <time>2012-08-19T07:45:42Z</time>
      </trkpt>
      <trkpt lat="59.9743437" lon="17.7302052">
        <ele>35.7061</ele>
        <time>2012-08-19T07:45:51Z</time>
      </trkpt>
      <trkpt lat="59.9743671" lon="17.7299804">
        <ele>36.1868</ele>
        <time>2012-08-19T07:45:58Z</time>
      </trkpt>
      <trkpt lat="59.9743844" lon="17.7297345">
        <ele>36.1868</ele>
        <time>2012-08-19T07:46:06Z</time>
      </trkpt>
      <trkpt lat="59.9743911" lon="17.7294337">
        <ele>36.1868</ele>
        <time>2012-08-19T07:46:16Z</time>
      </trkpt>
      <trkpt lat="59.9743839" lon="17.7291858">
        <ele>36.6675</ele>
        <time>2012-08-19T07:46:24Z</time>
      </trkpt>
      <trkpt lat="59.9743544" lon="17.7289859">
        <ele>35.2255</ele>
        <time>2012-08-19T07:46:30Z</time>
      </trkpt>
      <trkpt lat="59.9743921" lon="17.7288756">
        <ele>32.8223</ele>
        <time>2012-08-19T07:46:36Z</time>
      </trkpt>
      <trkpt lat="59.9744267" lon="17.7290356">
        <ele>32.3416</ele>
        <time>2012-08-19T07:46:41Z</time>
      </trkpt>
      <trkpt lat="59.9744418" lon="17.7291319">
        <ele>31.8607</ele>
        <time>2012-08-19T07:46:44Z</time>
      </trkpt>
      <trkpt lat="59.9744558" lon="17.7293496">
        <ele>31.3801</ele>
        <time>2012-08-19T07:46:50Z</time>
      </trkpt>
      <trkpt lat="59.9744572" lon="17.7295525">
        <ele>30.8995</ele>
        <time>2012-08-19T07:46:56Z</time>
      </trkpt>
      <trkpt lat="59.9744558" lon="17.7297727">
        <ele>31.3801</ele>
        <time>2012-08-19T07:47:03Z</time>
      </trkpt>
      <trkpt lat="59.9744409" lon="17.7300783">
        <ele>30.4188</ele>
        <time>2012-08-19T07:47:13Z</time>
      </trkpt>
      <trkpt lat="59.9744247" lon="17.730328">
        <ele>29.9381</ele>
        <time>2012-08-19T07:47:21Z</time>
      </trkpt>
      <trkpt lat="59.9744097" lon="17.7305009">
        <ele>29.9381</ele>
        <time>2012-08-19T07:47:27Z</time>
      </trkpt>
      <trkpt lat="59.9743895" lon="17.7307298">
        <ele>29.9381</ele>
        <time>2012-08-19T07:47:35Z</time>
      </trkpt>
      <trkpt lat="59.9743744" lon="17.7310051">
        <ele>29.9381</ele>
        <time>2012-08-19T07:47:44Z</time>
      </trkpt>
      <trkpt lat="59.9743739" lon="17.7312092">
        <ele>30.8995</ele>
        <time>2012-08-19T07:47:51Z</time>
      </trkpt>
      <trkpt lat="59.9743679" lon="17.7313966">
        <ele>30.8995</ele>
        <time>2012-08-19T07:47:57Z</time>
      </trkpt>
      <trkpt lat="59.9743657" lon="17.7315602">
        <ele>30.8995</ele>
        <time>2012-08-19T07:48:02Z</time>
      </trkpt>
      <trkpt lat="59.9743629" lon="17.7317267">
        <ele>31.8607</ele>
        <time>2012-08-19T07:48:08Z</time>
      </trkpt>
      <trkpt lat="59.974371" lon="17.7319681">
        <ele>33.3029</ele>
        <time>2012-08-19T07:48:17Z</time>
      </trkpt>
      <trkpt lat="59.9743749" lon="17.7322727">
        <ele>33.7834</ele>
        <time>2012-08-19T07:48:27Z</time>
      </trkpt>
      <trkpt lat="59.9743851" lon="17.7325756">
        <ele>34.7449</ele>
        <time>2012-08-19T07:48:37Z</time>
      </trkpt>
      <trkpt lat="59.9743916" lon="17.7328025">
        <ele>35.2255</ele>
        <time>2012-08-19T07:48:45Z</time>
      </trkpt>
      <trkpt lat="59.9743837" lon="17.7330627">
        <ele>34.7449</ele>
        <time>2012-08-19T07:48:54Z</time>
      </trkpt>
      <trkpt lat="59.9743801" lon="17.7332588">
        <ele>34.2642</ele>
        <time>2012-08-19T07:49:00Z</time>
      </trkpt>
      <trkpt lat="59.9743806" lon="17.7334077">
        <ele>33.3029</ele>
        <time>2012-08-19T07:49:05Z</time>
      </trkpt>
      <trkpt lat="59.9743701" lon="17.7335826">
        <ele>31.3801</ele>
        <time>2012-08-19T07:49:11Z</time>
      </trkpt>
      <trkpt lat="59.9743546" lon="17.7337526">
        <ele>30.8995</ele>
        <time>2012-08-19T07:49:16Z</time>
      </trkpt>
      <trkpt lat="59.9743579" lon="17.7337817">
        <ele>30.8995</ele>
        <time>2012-08-19T07:49:17Z</time>
      </trkpt>
      <trkpt lat="59.9743595" lon="17.733839">
        <ele>30.8995</ele>
        <time>2012-08-19T07:49:19Z</time>
      </trkpt>
      <trkpt lat="59.9743464" lon="17.7339769">
        <ele>29.9381</ele>
        <time>2012-08-19T07:49:24Z</time>
      </trkpt>
      <trkpt lat="59.9743279" lon="17.7342592">
        <ele>29.9381</ele>
        <time>2012-08-19T07:49:34Z</time>
      </trkpt>
      <trkpt lat="59.9743323" lon="17.7344637">
        <ele>29.9381</ele>
        <time>2012-08-19T07:49:41Z</time>
      </trkpt>
      <trkpt lat="59.9743356" lon="17.7346306">
        <ele>29.9381</ele>
        <time>2012-08-19T07:49:46Z</time>
      </trkpt>
      <trkpt lat="59.9743285" lon="17.7347821">
        <ele>30.4188</ele>
        <time>2012-08-19T07:49:51Z</time>
      </trkpt>
      <trkpt lat="59.9743204" lon="17.7348339">
        <ele>29.9381</ele>
        <time>2012-08-19T07:49:53Z</time>
      </trkpt>
      <trkpt lat="59.9743501" lon="17.7349985">
        <ele>29.9381</ele>
        <time>2012-08-19T07:49:58Z</time>
      </trkpt>
      <trkpt lat="59.9744022" lon="17.7351396">
        <ele>30.4188</ele>
        <time>2012-08-19T07:50:03Z</time>
      </trkpt>
      <trkpt lat="59.9744227" lon="17.7352486">
        <ele>32.8223</ele>
        <time>2012-08-19T07:50:07Z</time>
      </trkpt>
      <trkpt lat="59.9744391" lon="17.7355085">
        <ele>34.2642</ele>
        <time>2012-08-19T07:50:15Z</time>
      </trkpt>
      <trkpt lat="59.9744579" lon="17.7356702">
        <ele>33.3029</ele>
        <time>2012-08-19T07:50:20Z</time>
      </trkpt>
      <trkpt lat="59.9744735" lon="17.7358701">
        <ele>30.4188</ele>
        <time>2012-08-19T07:50:28Z</time>
      </trkpt>
      <trkpt lat="59.9745002" lon="17.735956">
        <ele>29.9381</ele>
        <time>2012-08-19T07:50:32Z</time>
      </trkpt>
      <trkpt lat="59.9745317" lon="17.7361176">
        <ele>29.9381</ele>
        <time>2012-08-19T07:50:38Z</time>
      </trkpt>
      <trkpt lat="59.9745926" lon="17.7364023">
        <ele>31.3801</ele>
        <time>2012-08-19T07:50:47Z</time>
      </trkpt>
      <trkpt lat="59.9746453" lon="17.736585">
        <ele>33.3029</ele>
        <time>2012-08-19T07:50:53Z</time>
      </trkpt>
      <trkpt lat="59.9747262" lon="17.7368226">
        <ele>34.7449</ele>
        <time>2012-08-19T07:51:02Z</time>
      </trkpt>
      <trkpt lat="59.974775" lon="17.7369895">
        <ele>35.2255</ele>
        <time>2012-08-19T07:51:08Z</time>
      </trkpt>
      <trkpt lat="59.9748855" lon="17.737256">
        <ele>37.1481</ele>
        <time>2012-08-19T07:51:19Z</time>
      </trkpt>
      <trkpt lat="59.9749216" lon="17.7373703">
        <ele>36.1868</ele>
        <time>2012-08-19T07:51:24Z</time>
      </trkpt>
      <trkpt lat="59.974968" lon="17.7374487">
        <ele>33.7834</ele>
        <time>2012-08-19T07:51:29Z</time>
      </trkpt>
      <trkpt lat="59.9750531" lon="17.7376046">
        <ele>31.3801</ele>
        <time>2012-08-19T07:51:38Z</time>
      </trkpt>
      <trkpt lat="59.9751273" lon="17.7377319">
        <ele>29.4575</ele>
        <time>2012-08-19T07:51:45Z</time>
      </trkpt>
      <trkpt lat="59.975153" lon="17.7377833">
        <ele>28.0155</ele>
        <time>2012-08-19T07:51:48Z</time>
      </trkpt>
      <trkpt lat="59.9752261" lon="17.7379221">
        <ele>27.0543</ele>
        <time>2012-08-19T07:51:55Z</time>
      </trkpt>
      <trkpt lat="59.9752618" lon="17.7380105">
        <ele>27.5349</ele>
        <time>2012-08-19T07:51:59Z</time>
      </trkpt>
      <trkpt lat="59.9753378" lon="17.7381746">
        <ele>28.9769</ele>
        <time>2012-08-19T07:52:05Z</time>
      </trkpt>
      <trkpt lat="59.9754162" lon="17.7383012">
        <ele>29.9381</ele>
        <time>2012-08-19T07:52:10Z</time>
      </trkpt>
      <trkpt lat="59.9754689" lon="17.7383623">
        <ele>30.4188</ele>
        <time>2012-08-19T07:52:14Z</time>
      </trkpt>
      <trkpt lat="59.9755184" lon="17.7384658">
        <ele>29.9381</ele>
        <time>2012-08-19T07:52:18Z</time>
      </trkpt>
      <trkpt lat="59.9755877" lon="17.7385706">
        <ele>27.0543</ele>
        <time>2012-08-19T07:52:25Z</time>
      </trkpt>
      <trkpt lat="59.9756316" lon="17.7386399">
        <ele>26.5736</ele>
        <time>2012-08-19T07:52:29Z</time>
      </trkpt>
      <trkpt lat="59.9757128" lon="17.7388248">
        <ele>25.6123</ele>
        <time>2012-08-19T07:52:38Z</time>
      </trkpt>
      <trkpt lat="59.9757845" lon="17.7389613">
        <ele>24.1703</ele>
        <time>2012-08-19T07:52:45Z</time>
      </trkpt>
      <trkpt lat="59.9758946" lon="17.7391415">
        <ele>23.6896</ele>
        <time>2012-08-19T07:52:54Z</time>
      </trkpt>
      <trkpt lat="59.9759658" lon="17.7392885">
        <ele>23.209</ele>
        <time>2012-08-19T07:53:01Z</time>
      </trkpt>
      <trkpt lat="59.976041" lon="17.7394356">
        <ele>24.1703</ele>
        <time>2012-08-19T07:53:08Z</time>
      </trkpt>
      <trkpt lat="59.9761144" lon="17.739559">
        <ele>26.0929</ele>
        <time>2012-08-19T07:53:14Z</time>
      </trkpt>
      <trkpt lat="59.976205" lon="17.7396716">
        <ele>28.0155</ele>
        <time>2012-08-19T07:53:21Z</time>
      </trkpt>
      <trkpt lat="59.9763092" lon="17.7397248">
        <ele>29.4575</ele>
        <time>2012-08-19T07:53:29Z</time>
      </trkpt>
      <trkpt lat="59.9763842" lon="17.739676">
        <ele>29.4575</ele>
        <time>2012-08-19T07:53:34Z</time>
      </trkpt>
      <trkpt lat="59.9764812" lon="17.7395584">
        <ele>30.4188</ele>
        <time>2012-08-19T07:53:42Z</time>
      </trkpt>
      <trkpt lat="59.9765649" lon="17.739458">
        <ele>31.8607</ele>
        <time>2012-08-19T07:53:49Z</time>
      </trkpt>
      <trkpt lat="59.9766801" lon="17.7393715">
        <ele>31.3801</ele>
        <time>2012-08-19T07:53:58Z</time>
      </trkpt>
      <trkpt lat="59.9767081" lon="17.7393669">
        <ele>30.8995</ele>
        <time>2012-08-19T07:54:00Z</time>
      </trkpt>
      <trkpt lat="59.976803" lon="17.7393091">
        <ele>30.8995</ele>
        <time>2012-08-19T07:54:07Z</time>
      </trkpt>
      <trkpt lat="59.9768551" lon="17.7392899">
        <ele>29.4575</ele>
        <time>2012-08-19T07:54:10Z</time>
      </trkpt>
      <trkpt lat="59.976978" lon="17.7392743">
        <ele>29.4575</ele>
        <time>2012-08-19T07:54:18Z</time>
      </trkpt>
      <trkpt lat="59.9770565" lon="17.739241">
        <ele>27.0543</ele>
        <time>2012-08-19T07:54:24Z</time>
      </trkpt>
      <trkpt lat="59.9771037" lon="17.7392264">
        <ele>25.6123</ele>
        <time>2012-08-19T07:54:28Z</time>
      </trkpt>
      <trkpt lat="59.9771893" lon="17.7391725">
        <ele>27.0543</ele>
        <time>2012-08-19T07:54:35Z</time>
      </trkpt>
      <trkpt lat="59.9772894" lon="17.739112">
        <ele>28.9769</ele>
        <time>2012-08-19T07:54:42Z</time>
      </trkpt>
      <trkpt lat="59.9774111" lon="17.7390239">
        <ele>30.4188</ele>
        <time>2012-08-19T07:54:49Z</time>
      </trkpt>
      <trkpt lat="59.9775165" lon="17.7389813">
        <ele>31.3801</ele>
        <time>2012-08-19T07:54:56Z</time>
      </trkpt>
      <trkpt lat="59.9776312" lon="17.7389747">
        <ele>30.8995</ele>
        <time>2012-08-19T07:55:03Z</time>
      </trkpt>
      <trkpt lat="59.9777401" lon="17.7389911">
        <ele>30.8995</ele>
        <time>2012-08-19T07:55:10Z</time>
      </trkpt>
      <trkpt lat="59.9778549" lon="17.7390125">
        <ele>33.7834</ele>
        <time>2012-08-19T07:55:16Z</time>
      </trkpt>
      <trkpt lat="59.9779316" lon="17.7390477">
        <ele>31.3801</ele>
        <time>2012-08-19T07:55:21Z</time>
      </trkpt>
      <trkpt lat="59.9780502" lon="17.7390974">
        <ele>33.3029</ele>
        <time>2012-08-19T07:55:28Z</time>
      </trkpt>
      <trkpt lat="59.9781329" lon="17.7391518">
        <ele>34.2642</ele>
        <time>2012-08-19T07:55:33Z</time>
      </trkpt>
      <trkpt lat="59.9781579" lon="17.7391536">
        <ele>34.2642</ele>
        <time>2012-08-19T07:55:35Z</time>
      </trkpt>
      <trkpt lat="59.9782357" lon="17.7391596">
        <ele>36.6675</ele>
        <time>2012-08-19T07:55:41Z</time>
      </trkpt>
      <trkpt lat="59.9783161" lon="17.7391749">
        <ele>35.7061</ele>
        <time>2012-08-19T07:55:46Z</time>
      </trkpt>
      <trkpt lat="59.9784147" lon="17.7392036">
        <ele>32.3416</ele>
        <time>2012-08-19T07:55:54Z</time>
      </trkpt>
      <trkpt lat="59.9784417" lon="17.7392212">
        <ele>31.3801</ele>
        <time>2012-08-19T07:55:56Z</time>
      </trkpt>
      <trkpt lat="59.9785361" lon="17.7392326">
        <ele>26.0929</ele>
        <time>2012-08-19T07:56:03Z</time>
      </trkpt>
      <trkpt lat="59.9786142" lon="17.7392729">
        <ele>24.1703</ele>
        <time>2012-08-19T07:56:08Z</time>
      </trkpt>
      <trkpt lat="59.9787411" lon="17.739298">
        <ele>22.7283</ele>
        <time>2012-08-19T07:56:16Z</time>
      </trkpt>
      <trkpt lat="59.9787895" lon="17.7393185">
        <ele>21.2864</ele>
        <time>2012-08-19T07:56:20Z</time>
      </trkpt>
      <trkpt lat="59.9788215" lon="17.7394627">
        <ele>18.4023</ele>
        <time>2012-08-19T07:56:26Z</time>
      </trkpt>
      <trkpt lat="59.9788014" lon="17.7395113">
        <ele>16.9604</ele>
        <time>2012-08-19T07:56:28Z</time>
      </trkpt>
      <trkpt lat="59.9787442" lon="17.7396606">
        <ele>19.8444</ele>
        <time>2012-08-19T07:56:35Z</time>
      </trkpt>
      <trkpt lat="59.9787381" lon="17.7398221">
        <ele>22.7283</ele>
        <time>2012-08-19T07:56:41Z</time>
      </trkpt>
      <trkpt lat="59.9787697" lon="17.7399143">
        <ele>25.6123</ele>
        <time>2012-08-19T07:56:45Z</time>
      </trkpt>
    </trkseg>
  </trk>
</gpx>